Time;durP1;ratioP1;P1;durP2;ratioP2;P2;SDS_P1;SDS_P2;PMS_P1;PMS_P2;Temp;Humidity;BMP_temperature;BMP_pressure;BME280_temperature;BME280_humidity;BME280_pressure;Samples;Min_cycle;Max_cycle;Signal;HPM_P1;HPM_P2
2022/01/24 00:01:40;;;;;;;8.68;5.80;;;6.30;99.90;;;;;;4990259;28;20581;-71
2022/01/24 00:04:07;;;;;;;9.80;5.68;;;6.30;99.90;;;;;;4991719;28;20053;-72
2022/01/24 00:06:33;;;;;;;9.07;6.35;;;6.30;99.90;;;;;;4992886;28;20061;-73
2022/01/24 00:09:00;;;;;;;8.70;5.47;;;6.30;99.90;;;;;;4991371;28;20058;-72
2022/01/24 00:11:37;;;;;;;9.95;6.05;;;6.30;99.90;;;;;;4992879;28;20106;-71
2022/01/24 00:17:01;;;;;;;10.18;6.25;;;6.30;99.90;;;;;;4989773;28;20130;-72
2022/01/24 00:26:43;;;;;;;8.93;5.68;;;6.30;99.90;;;;;;4991173;28;20116;-73
2022/01/24 00:28:00;;;;;;;7.78;5.30;;;6.20;99.90;;;;;;4990259;28;20109;-74
2022/01/24 00:30:26;;;;;;;9.05;5.75;;;6.20;99.90;;;;;;4991285;28;20117;-72
2022/01/24 00:32:51;;;;;;;9.43;5.90;;;6.30;99.90;;;;;;4990564;28;20041;-72
2022/01/24 00:35:17;;;;;;;8.00;5.55;;;6.20;99.90;;;;;;4990707;28;20156;-74
2022/01/24 00:37:43;;;;;;;10.13;6.05;;;6.20;99.90;;;;;;4991288;28;20126;-72
2022/01/24 00:40:10;;;;;;;11.15;5.53;;;6.20;99.90;;;;;;4997838;28;20030;-73
2022/01/24 00:55:22;;;;;;;10.82;6.47;;;6.20;99.90;;;;;;4989979;28;20046;-73
2022/01/24 00:57:48;;;;;;;10.05;6.03;;;6.20;99.90;;;;;;4992427;28;20095;-73
2022/01/24 01:00:13;;;;;;;9.93;6.25;;;6.10;99.90;;;;;;4992416;28;20113;-72
2022/01/24 01:02:39;;;;;;;9.00;6.72;;;6.10;99.90;;;;;;4989361;28;20066;-70
2022/01/24 01:18:35;;;;;;;8.07;5.72;;;6.10;99.90;;;;;;4991667;28;20449;-73
2022/01/24 01:23:28;;;;;;;10.25;6.60;;;6.10;99.90;;;;;;4990745;28;20476;-73
2022/01/24 01:25:55;;;;;;;10.98;6.88;;;6.20;99.90;;;;;;4989051;28;20030;-73
2022/01/24 01:28:22;;;;;;;9.10;6.57;;;6.10;99.90;;;;;;4986823;28;20079;-72
2022/01/24 01:30:52;;;;;;;10.05;6.20;;;6.10;99.90;;;;;;4989114;28;20659;-72
2022/01/24 01:36:10;;;;;;;8.73;6.03;;;6.10;99.90;;;;;;4990615;28;20456;-73
2022/01/24 01:55:40;;;;;;;13.48;7.40;;;6.00;99.90;;;;;;4988614;28;20026;-72
2022/01/24 01:58:11;;;;;;;14.10;7.70;;;6.00;99.90;;;;;;4989504;28;20121;-72
2022/01/24 02:00:39;;;;;;;11.60;7.47;;;6.00;99.90;;;;;;4986671;28;20035;-73
2022/01/24 02:03:05;;;;;;;12.77;7.20;;;5.90;99.90;;;;;;4989137;28;20038;-72
2022/01/24 02:05:31;;;;;;;13.60;7.15;;;5.90;99.90;;;;;;4988056;28;20492;-73
2022/01/24 02:07:57;;;;;;;13.98;8.32;;;5.90;99.90;;;;;;4992906;28;20038;-73
2022/01/24 02:10:24;;;;;;;11.18;7.13;;;5.90;99.90;;;;;;4998068;28;20037;-72
2022/01/24 02:12:53;;;;;;;11.38;7.32;;;5.90;99.90;;;;;;4989228;28;20080;-72
2022/01/24 02:15:49;;;;;;;12.40;7.43;;;5.90;99.90;;;;;;4988705;28;20126;-73
2022/01/24 02:25:53;;;;;;;14.52;7.80;;;5.90;99.90;;;;;;4987264;28;20023;-73
2022/01/24 02:28:20;;;;;;;13.73;7.75;;;5.90;99.90;;;;;;4987556;28;20032;-73
2022/01/24 02:31:20;;;;;;;12.85;7.35;;;5.90;99.90;;;;;;4988385;28;20019;-73
2022/01/24 02:33:48;;;;;;;13.82;7.68;;;5.90;99.90;;;;;;4989050;28;20030;-72
2022/01/24 02:36:22;;;;;;;16.65;8.50;;;5.80;99.90;;;;;;4994094;28;20034;-73
2022/01/24 02:49:33;;;;;;;11.73;7.65;;;5.80;99.90;;;;;;4986942;28;20034;-72
2022/01/24 02:52:03;;;;;;;11.82;7.75;;;5.90;99.90;;;;;;4988848;28;20037;-73
2022/01/24 02:54:32;;;;;;;12.57;7.22;;;5.80;99.90;;;;;;4990440;28;20407;-73
2022/01/24 02:56:58;;;;;;;11.73;7.78;;;5.80;99.90;;;;;;4994430;28;20029;-73
2022/01/24 02:59:25;;;;;;;11.85;7.68;;;5.90;99.90;;;;;;4989033;28;20062;-73
2022/01/24 03:01:51;;;;;;;12.63;7.85;;;5.90;99.90;;;;;;4987747;28;20101;-72
2022/01/24 03:04:17;;;;;;;10.70;7.47;;;5.90;99.90;;;;;;5004726;28;20107;-71
2022/01/24 03:06:43;;;;;;;11.82;8.23;;;5.90;99.90;;;;;;4995567;28;20066;-73
2022/01/24 03:09:09;;;;;;;9.80;7.00;;;5.90;99.90;;;;;;4987878;28;20087;-73
2022/01/24 03:14:18;;;;;;;9.98;7.18;;;5.80;99.90;;;;;;4995053;28;20045;-73
2022/01/24 03:16:44;;;;;;;11.27;7.38;;;5.80;99.90;;;;;;4986711;28;20038;-72
2022/01/24 03:19:09;;;;;;;10.98;7.13;;;5.80;99.90;;;;;;4988318;28;20026;-72
2022/01/24 03:21:35;;;;;;;10.90;6.72;;;5.70;99.90;;;;;;4989909;28;20034;-72
2022/01/24 03:24:01;;;;;;;9.88;6.63;;;5.70;99.90;;;;;;4991701;28;20057;-73
2022/01/24 03:26:26;;;;;;;11.68;7.05;;;5.70;99.90;;;;;;4991841;28;20038;-73
2022/01/24 03:28:52;;;;;;;11.68;6.75;;;5.80;99.90;;;;;;4991640;28;20038;-73
2022/01/24 03:31:18;;;;;;;9.95;6.50;;;5.80;99.90;;;;;;4992630;28;20451;-72
2022/01/24 03:33:44;;;;;;;9.23;5.85;;;5.70;99.90;;;;;;4989008;28;20027;-72
2022/01/24 03:36:10;;;;;;;10.30;6.05;;;5.70;99.90;;;;;;4991328;28;20023;-72
2022/01/24 03:38:36;;;;;;;10.10;6.55;;;5.70;99.90;;;;;;4991100;28;20069;-70
2022/01/24 03:41:02;;;;;;;9.13;6.20;;;5.80;99.90;;;;;;4993803;28;20085;-72
2022/01/24 03:43:28;;;;;;;7.80;5.70;;;5.70;99.90;;;;;;4992368;28;20035;-73
2022/01/24 03:48:55;;;;;;;10.65;6.50;;;5.70;99.90;;;;;;4988507;28;20508;-73
2022/01/24 03:51:23;;;;;;;10.35;6.60;;;5.60;99.90;;;;;;4992105;28;20042;-72
2022/01/24 03:53:49;;;;;;;10.95;6.43;;;5.60;99.90;;;;;;4991457;28;20026;-72
2022/01/24 03:56:15;;;;;;;8.73;5.60;;;5.60;99.90;;;;;;4988432;28;20074;-73
2022/01/24 03:58:42;;;;;;;12.52;6.07;;;5.70;99.90;;;;;;4990523;28;20053;-73
2022/01/24 04:01:09;;;;;;;9.70;6.32;;;5.70;99.90;;;;;;4989103;28;20045;-73
2022/01/24 04:03:36;;;;;;;8.50;5.80;;;5.70;99.90;;;;;;4990653;28;20034;-72
2022/01/24 04:06:06;;;;;;;11.38;7.15;;;5.70;99.90;;;;;;4992492;28;20034;-73
2022/01/24 04:08:32;;;;;;;8.70;5.82;;;5.70;99.90;;;;;;4991580;28;20555;-73
2022/01/24 04:10:58;;;;;;;11.88;6.70;;;5.70;99.90;;;;;;4990964;28;20058;-74
2022/01/24 04:13:33;;;;;;;10.98;7.07;;;5.70;99.90;;;;;;4991675;28;20148;-73
2022/01/24 04:21:26;;;;;;;8.73;5.85;;;5.60;99.90;;;;;;4992293;28;20037;-73
2022/01/24 04:24:11;;;;;;;10.38;6.43;;;5.60;99.90;;;;;;4992512;28;20034;-73
2022/01/24 04:26:38;;;;;;;10.85;6.97;;;5.50;99.90;;;;;;4991014;28;20034;-72
2022/01/24 04:29:07;;;;;;;10.80;7.07;;;5.50;99.90;;;;;;4990107;28;20030;-71
2022/01/24 04:31:33;;;;;;;10.70;6.50;;;5.50;99.90;;;;;;4990220;28;20034;-72
2022/01/24 04:33:59;;;;;;;9.93;6.20;;;5.50;99.90;;;;;;4989800;28;20033;-72
2022/01/24 04:36:26;;;;;;;10.10;6.63;;;5.60;99.90;;;;;;4988288;28;20409;-72
2022/01/24 04:38:52;;;;;;;9.82;6.05;;;5.60;99.90;;;;;;4991833;28;20110;-71
2022/01/24 04:41:23;;;;;;;12.00;7.20;;;5.60;99.90;;;;;;4990671;28;20034;-74
2022/01/24 04:43:56;;;;;;;12.20;8.07;;;5.50;99.90;;;;;;4991512;28;20080;-73
2022/01/24 04:51:35;;;;;;;13.75;8.55;;;5.50;99.90;;;;;;4993419;28;20445;-73
2022/01/24 04:56:34;;;;;;;11.95;8.30;;;5.50;99.90;;;;;;4990571;28;20121;-72
2022/01/24 04:58:59;;;;;;;15.95;9.23;;;5.40;99.90;;;;;;4989858;28;20528;-75
2022/01/24 05:01:25;;;;;;;14.27;9.20;;;5.40;99.90;;;;;;4990335;28;20042;-73
2022/01/24 05:03:52;;;;;;;17.63;8.85;;;5.40;99.90;;;;;;4988274;28;20125;-72
2022/01/24 05:06:18;;;;;;;14.55;9.25;;;5.40;99.90;;;;;;4990207;28;20033;-73
2022/01/24 05:08:44;;;;;;;15.05;9.25;;;5.40;99.90;;;;;;4989274;28;20030;-71
2022/01/24 05:11:14;;;;;;;16.27;10.15;;;5.40;99.90;;;;;;4988606;28;20030;-73
2022/01/24 05:24:33;;;;;;;14.18;8.68;;;5.50;99.90;;;;;;4991934;28;20468;-70
2022/01/24 05:26:59;;;;;;;15.63;9.55;;;5.50;99.90;;;;;;5008859;28;20030;-69
2022/01/24 05:29:25;;;;;;;12.75;8.38;;;5.50;99.90;;;;;;4994111;28;20035;-73
2022/01/24 05:31:51;;;;;;;15.25;9.30;;;5.50;99.90;;;;;;4989859;28;20038;-72
2022/01/24 05:34:16;;;;;;;16.05;8.90;;;5.50;99.90;;;;;;4990081;28;20061;-72
2022/01/24 05:36:42;;;;;;;17.13;10.60;;;5.50;99.90;;;;;;4991158;28;20036;-72
2022/01/24 05:39:08;;;;;;;17.77;9.43;;;5.50;99.90;;;;;;4989217;28;20441;-72
2022/01/24 05:41:37;;;;;;;15.48;10.13;;;5.50;99.90;;;;;;4989640;28;20061;-72
2022/01/24 05:44:04;;;;;;;16.27;9.88;;;5.50;99.90;;;;;;4987864;28;20034;-72
2022/01/24 05:46:30;;;;;;;18.95;9.95;;;5.50;99.90;;;;;;4988533;28;20023;-73
2022/01/24 05:48:56;;;;;;;14.98;9.55;;;5.50;99.90;;;;;;4986490;28;20399;-70
2022/01/24 05:51:22;;;;;;;17.88;10.57;;;5.40;99.90;;;;;;4988412;28;20030;-73
2022/01/24 05:53:48;;;;;;;17.73;10.32;;;5.50;99.90;;;;;;4994037;28;20045;-73
2022/01/24 05:56:13;;;;;;;18.00;11.02;;;5.50;99.90;;;;;;4989235;28;20050;-73
2022/01/24 05:58:39;;;;;;;15.27;9.50;;;5.50;99.90;;;;;;4990749;28;20033;-74
2022/01/24 06:01:05;;;;;;;17.77;11.25;;;5.50;99.90;;;;;;4987876;28;20126;-73
2022/01/24 06:03:31;;;;;;;14.60;8.55;;;5.50;99.90;;;;;;4990418;28;20026;-73
2022/01/24 06:05:56;;;;;;;18.58;10.48;;;5.60;99.90;;;;;;4989826;28;20034;-73
2022/01/24 06:08:22;;;;;;;15.23;9.55;;;5.50;99.90;;;;;;4987480;28;20027;-73
2022/01/24 06:10:48;;;;;;;16.25;9.80;;;5.60;99.90;;;;;;4986404;28;20405;-72
2022/01/24 06:13:15;;;;;;;17.13;10.10;;;5.50;99.90;;;;;;4987923;28;20142;-77
2022/01/24 06:15:42;;;;;;;18.50;9.80;;;5.60;99.90;;;;;;4986994;28;20942;-73
2022/01/24 06:18:08;;;;;;;18.35;10.73;;;5.60;99.90;;;;;;4984992;28;20033;-72
2022/01/24 06:20:33;;;;;;;17.40;10.55;;;5.50;99.90;;;;;;4987273;28;20038;-73
2022/01/24 06:23:00;;;;;;;17.20;9.95;;;5.50;99.90;;;;;;4990926;28;20022;-72
2022/01/24 06:25:25;;;;;;;18.95;11.27;;;5.50;99.90;;;;;;4990440;28;20022;-73
2022/01/24 06:27:52;;;;;;;17.70;11.32;;;5.50;99.90;;;;;;4985439;28;20041;-72
2022/01/24 06:30:18;;;;;;;20.48;11.65;;;5.60;99.90;;;;;;4988727;28;20129;-72
2022/01/24 06:32:44;;;;;;;19.23;11.07;;;5.50;99.90;;;;;;4989519;28;20114;-73
2022/01/24 06:35:11;;;;;;;21.25;11.98;;;5.50;99.90;;;;;;4996627;28;20092;-72
2022/01/24 06:37:38;;;;;;;23.80;11.70;;;5.40;99.90;;;;;;4987138;28;20101;-73
2022/01/24 06:40:06;;;;;;;19.50;11.68;;;5.40;99.90;;;;;;4988863;28;20034;-71
2022/01/24 06:42:31;;;;;;;22.10;11.63;;;5.40;99.90;;;;;;4986298;28;20117;-72
2022/01/24 06:44:57;;;;;;;20.30;12.00;;;5.50;99.90;;;;;;4988167;28;20163;-73
2022/01/24 06:47:23;;;;;;;24.98;13.13;;;5.50;99.90;;;;;;4989815;28;20046;-72
2022/01/24 06:49:50;;;;;;;23.13;13.10;;;5.50;99.90;;;;;;4984709;28;20046;-72
2022/01/24 06:52:16;;;;;;;21.33;12.40;;;5.50;99.90;;;;;;4988161;28;20077;-72
2022/01/24 06:54:42;;;;;;;21.88;12.98;;;5.50;99.90;;;;;;4990085;28;20228;-70
2022/01/24 06:57:13;;;;;;;26.92;14.43;;;5.40;99.90;;;;;;4989787;28;20433;-72
2022/01/24 06:59:44;;;;;;;21.77;12.57;;;5.50;99.90;;;;;;4980820;28;20034;-72
2022/01/24 07:02:11;;;;;;;22.88;11.98;;;5.40;99.90;;;;;;4982964;28;20077;-73
2022/01/24 07:04:39;;;;;;;22.20;12.60;;;5.40;99.90;;;;;;4990438;28;20468;-72
2022/01/24 07:07:06;;;;;;;19.17;11.15;;;5.40;99.90;;;;;;4990391;28;20045;-72
2022/01/24 07:09:32;;;;;;;23.30;12.60;;;5.40;99.90;;;;;;4991582;28;20117;-71
2022/01/24 07:11:58;;;;;;;23.65;13.38;;;5.40;99.90;;;;;;4987121;28;20117;-72
2022/01/24 07:14:24;;;;;;;20.67;11.88;;;5.40;99.90;;;;;;4988939;28;20456;-72
2022/01/24 07:19:22;;;;;;;22.58;12.95;;;5.50;99.90;;;;;;4986296;28;20045;-74
2022/01/24 07:21:48;;;;;;;24.10;12.07;;;5.50;99.90;;;;;;4992893;28;20022;-73
2022/01/24 07:24:14;;;;;;;25.50;13.40;;;5.50;99.90;;;;;;4992560;28;20046;-72
2022/01/24 07:26:40;;;;;;;21.13;11.98;;;5.50;99.90;;;;;;4991578;28;20121;-73
2022/01/24 07:29:05;;;;;;;23.80;12.90;;;5.40;99.90;;;;;;4996243;28;20380;-74
2022/01/24 07:31:34;;;;;;;24.40;13.07;;;5.50;99.90;;;;;;4993341;28;20035;-74
2022/01/24 07:34:00;;;;;;;26.15;13.43;;;5.40;99.90;;;;;;4994511;28;20023;-74
2022/01/24 07:36:26;;;;;;;23.75;13.43;;;5.40;99.90;;;;;;4975716;28;21747;-74
2022/01/24 07:38:52;;;;;;;25.10;14.02;;;5.40;99.90;;;;;;4990013;28;20441;-73
2022/01/24 07:41:25;;;;;;;28.30;15.25;;;5.40;99.90;;;;;;4995078;28;20058;-74
2022/01/24 07:43:51;;;;;;;29.63;15.75;;;5.40;99.90;;;;;;4976967;28;20042;-73
2022/01/24 07:46:16;;;;;;;27.63;14.30;;;5.40;99.90;;;;;;4995182;28;20049;-73
2022/01/24 07:48:42;;;;;;;25.40;14.45;;;5.50;99.90;;;;;;4999853;28;20422;-73
2022/01/24 07:51:11;;;;;;;27.60;15.70;;;5.70;99.90;;;;;;4999656;28;20030;-73
2022/01/24 07:53:37;;;;;;;29.70;16.10;;;5.70;99.90;;;;;;4992111;28;20026;-73
2022/01/24 07:56:04;;;;;;;33.75;18.17;;;5.70;99.90;;;;;;4993568;28;20080;-73
2022/01/24 07:58:29;;;;;;;31.80;17.15;;;5.60;99.90;;;;;;4991010;28;20031;-73
2022/01/24 08:00:55;;;;;;;30.42;16.20;;;5.60;99.90;;;;;;4989969;28;20453;-73
2022/01/24 08:03:21;;;;;;;35.03;18.48;;;5.50;99.90;;;;;;4992544;28;20121;-72
2022/01/24 08:05:47;;;;;;;36.78;18.88;;;5.60;99.90;;;;;;4994057;28;20029;-72
2022/01/24 08:08:13;;;;;;;37.03;19.50;;;5.50;99.90;;;;;;4989593;28;20784;-72
2022/01/24 08:10:38;;;;;;;40.45;19.83;;;5.60;99.90;;;;;;4988695;28;20034;-73
2022/01/24 08:13:04;;;;;;;45.80;22.00;;;5.50;99.90;;;;;;4992858;28;20054;-73
2022/01/24 08:15:35;;;;;;;41.63;20.85;;;5.60;99.90;;;;;;4988609;28;20030;-72
2022/01/24 08:18:01;;;;;;;37.40;19.25;;;5.50;99.90;;;;;;4987707;28;20026;-73
2022/01/24 08:20:26;;;;;;;40.50;20.90;;;5.60;99.90;;;;;;5007220;28;20100;-72
2022/01/24 08:22:52;;;;;;;38.70;20.17;;;5.60;99.90;;;;;;4985917;28;20397;-73
2022/01/24 08:25:18;;;;;;;41.05;20.35;;;5.60;99.90;;;;;;4999681;28;20030;-73
2022/01/24 08:27:46;;;;;;;40.53;19.63;;;5.60;99.90;;;;;;4990416;28;20141;-74
2022/01/24 08:30:17;;;;;;;40.70;20.83;;;5.60;99.90;;;;;;4989318;28;20034;-73
2022/01/24 08:32:44;;;;;;;46.67;22.77;;;5.60;99.90;;;;;;4995499;28;20162;-74
2022/01/24 08:35:10;;;;;;;41.78;22.08;;;5.60;99.90;;;;;;4991579;28;20106;-73
2022/01/24 08:37:36;;;;;;;48.47;23.30;;;5.60;99.90;;;;;;4990440;28;20101;-74
2022/01/24 08:40:06;;;;;;;50.45;25.63;;;5.60;99.90;;;;;;4989374;28;20073;-73
2022/01/24 08:47:26;;;;;;;49.90;24.85;;;5.50;99.90;;;;;;4988921;28;20038;-73
2022/01/24 08:49:52;;;;;;;48.67;24.13;;;5.50;99.90;;;;;;4991089;28;20625;-73
2022/01/24 08:52:19;;;;;;;50.05;25.90;;;5.60;99.90;;;;;;5013886;23;20141;-72
2022/01/24 08:54:45;;;;;;;51.83;27.25;;;5.60;99.90;;;;;;5008103;28;20023;-72
2022/01/24 08:57:32;;;;;;;57.45;27.52;;;5.60;99.90;;;;;;5016319;28;20072;-72
2022/01/24 08:59:57;;;;;;;49.55;25.17;;;5.60;99.90;;;;;;4969983;28;20416;-71
2022/01/24 09:02:24;;;;;;;56.42;28.23;;;5.60;99.90;;;;;;4961954;28;20046;-73
2022/01/24 09:04:50;;;;;;;54.05;26.63;;;5.70;99.90;;;;;;4951250;28;20210;-72
2022/01/24 09:07:18;;;;;;;50.80;26.52;;;5.60;99.90;;;;;;4949893;28;20031;-71
2022/01/24 09:09:44;;;;;;;48.05;25.15;;;5.60;99.90;;;;;;4950678;28;20032;-71
2022/01/24 09:12:12;;;;;;;50.20;25.83;;;5.60;99.90;;;;;;4950398;28;20440;-71
2022/01/24 09:14:47;;;;;;;54.08;27.67;;;5.60;99.90;;;;;;4930121;29;20042;-73
2022/01/24 09:17:14;;;;;;;50.08;25.42;;;5.60;99.90;;;;;;4949731;28;20164;-72
2022/01/24 09:19:40;;;;;;;48.97;24.67;;;5.70;99.90;;;;;;4949041;28;20027;-71
2022/01/24 09:22:06;;;;;;;59.30;28.63;;;5.70;99.90;;;;;;4947424;28;20106;-71
2022/01/24 09:24:33;;;;;;;52.25;27.98;;;5.70;99.90;;;;;;4931349;29;20708;-73
2022/01/24 09:26:58;;;;;;;54.25;27.08;;;5.70;99.90;;;;;;4946172;28;20406;-72
2022/01/24 09:29:24;;;;;;;56.70;27.13;;;5.70;99.90;;;;;;4951334;28;20035;-71
2022/01/24 09:31:50;;;;;;;56.83;27.38;;;5.70;99.90;;;;;;4949905;28;20158;-71
2022/01/24 09:34:16;;;;;;;58.50;28.33;;;5.60;99.90;;;;;;4946930;28;20138;-74
2022/01/24 09:36:42;;;;;;;48.10;26.23;;;5.60;99.90;;;;;;4971060;28;20437;-72
2022/01/24 09:39:07;;;;;;;53.80;27.13;;;5.60;99.90;;;;;;4992438;28;20047;-72
2022/01/24 09:41:33;;;;;;;52.05;26.35;;;5.60;99.90;;;;;;4994524;28;20026;-71
2022/01/24 09:43:59;;;;;;;50.05;25.50;;;5.50;99.90;;;;;;4985746;28;20543;-71
2022/01/24 09:46:25;;;;;;;53.17;25.42;;;5.50;99.90;;;;;;4986304;28;21084;-71
2022/01/24 09:48:51;;;;;;;49.13;24.88;;;5.50;99.90;;;;;;4995419;28;20038;-71
2022/01/24 09:51:18;;;;;;;48.85;24.05;;;5.50;99.90;;;;;;4991769;28;20147;-71
2022/01/24 09:53:43;;;;;;;52.78;25.13;;;5.60;99.90;;;;;;4988340;28;20089;-71
2022/01/24 09:56:09;;;;;;;48.72;24.58;;;5.60;99.90;;;;;;4987963;28;20021;-71
2022/01/24 09:58:36;;;;;;;49.50;24.30;;;5.60;99.90;;;;;;4983784;28;20015;-72
2022/01/24 10:01:07;;;;;;;53.17;27.10;;;5.70;99.90;;;;;;4977829;28;20027;-72
2022/01/24 10:03:33;;;;;;;52.88;25.42;;;5.70;99.90;;;;;;4988527;28;20481;-72
2022/01/24 10:05:59;;;;;;;51.03;23.92;;;5.70;99.90;;;;;;4986425;28;20030;-72
2022/01/24 10:08:30;;;;;;;50.15;24.08;;;5.70;99.90;;;;;;4991214;28;20104;-71
2022/01/24 10:11:03;;;;;;;48.03;22.98;;;5.80;99.90;;;;;;4993322;28;20403;-72
2022/01/24 10:16:43;;;;;;;45.08;22.20;;;5.70;99.90;;;;;;4991217;28;20038;-72
2022/01/24 10:19:10;;;;;;;45.78;22.42;;;5.80;99.90;;;;;;4990333;28;20026;-73
2022/01/24 10:21:48;;;;;;;45.22;22.05;;;5.70;99.90;;;;;;4991912;28;20033;-71
2022/01/24 10:24:40;;;;;;;47.92;21.90;;;5.70;99.90;;;;;;4993233;28;20030;-73
2022/01/24 10:27:29;;;;;;;40.97;20.55;;;5.70;99.90;;;;;;4985557;28;20083;-73
2022/01/24 10:30:10;;;;;;;43.97;20.77;;;5.70;99.90;;;;;;4988915;28;20026;-74
2022/01/24 10:32:43;;;;;;;45.38;21.05;;;5.70;99.90;;;;;;4987817;28;20038;-74
2022/01/24 10:35:46;;;;;;;41.20;20.05;;;5.70;99.90;;;;;;4981904;28;20022;-74
2022/01/24 10:38:54;;;;;;;42.65;20.27;;;5.70;99.90;;;;;;4990386;28;20396;-74
2022/01/24 10:41:23;;;;;;;43.00;19.88;;;5.70;99.90;;;;;;4987753;28;20042;-76
2022/01/24 10:43:52;;;;;;;44.85;20.88;;;5.80;99.90;;;;;;4991318;28;20430;-74
2022/01/24 10:46:27;;;;;;;42.00;19.80;;;5.70;99.90;;;;;;4991027;28;20030;-74
2022/01/24 10:49:07;;;;;;;46.10;19.33;;;5.70;99.90;;;;;;4989972;28;20476;-75
2022/01/24 10:51:44;;;;;;;39.47;19.70;;;5.80;99.90;;;;;;4989763;28;20069;-75
2022/01/24 10:54:13;;;;;;;38.97;18.65;;;5.80;99.90;;;;;;4992559;28;20026;-73
2022/01/24 10:56:44;;;;;;;37.42;18.30;;;5.80;99.90;;;;;;4995170;28;20026;-75
2022/01/24 10:59:24;;;;;;;39.85;19.17;;;5.70;99.90;;;;;;4994802;28;20019;-75
2022/01/24 11:01:56;;;;;;;44.70;18.75;;;5.80;99.90;;;;;;4986716;28;20031;-74
2022/01/24 11:04:24;;;;;;;41.40;19.08;;;5.80;99.90;;;;;;4993847;28;20076;-75
2022/01/24 11:06:54;;;;;;;40.78;19.17;;;5.80;99.90;;;;;;4985715;28;20046;-76
2022/01/24 11:09:28;;;;;;;42.22;19.25;;;5.80;99.90;;;;;;4991351;28;20034;-76
2022/01/24 11:11:56;;;;;;;39.75;18.23;;;5.80;99.90;;;;;;5001313;28;20034;-76
2022/01/24 11:14:25;;;;;;;42.10;18.08;;;5.80;99.90;;;;;;4993847;28;20033;-74
2022/01/24 11:16:52;;;;;;;37.13;18.23;;;5.70;99.90;;;;;;4989356;28;20054;-74
2022/01/24 11:19:30;;;;;;;38.15;18.42;;;5.80;99.90;;;;;;4993708;28;20026;-74
2022/01/24 11:21:59;;;;;;;46.75;19.80;;;5.80;99.90;;;;;;4990124;28;20041;-74
2022/01/24 11:24:36;;;;;;;39.88;19.58;;;5.80;99.90;;;;;;4985395;28;20037;-75
2022/01/24 11:27:02;;;;;;;48.22;21.48;;;5.80;99.90;;;;;;4989065;28;20037;-72
2022/01/24 11:29:31;;;;;;;42.20;19.08;;;5.80;99.90;;;;;;4987258;28;20030;-76
2022/01/24 11:32:13;;;;;;;44.47;20.67;;;5.80;99.90;;;;;;4985020;28;20039;-74
2022/01/24 11:34:40;;;;;;;44.88;20.08;;;5.80;99.90;;;;;;4988555;28;20033;-74
2022/01/24 11:37:07;;;;;;;44.17;20.52;;;5.80;99.90;;;;;;4988877;28;20053;-74
2022/01/24 11:39:35;;;;;;;48.50;22.23;;;5.80;99.90;;;;;;4983274;28;20337;-74
2022/01/24 11:42:02;;;;;;;54.40;22.08;;;5.80;99.90;;;;;;4987362;28;20105;-76
2022/01/24 11:44:58;;;;;;;39.75;19.02;;;5.80;99.90;;;;;;4990010;28;20030;-74
2022/01/24 11:47:26;;;;;;;41.92;20.08;;;5.80;99.90;;;;;;4989902;28;20133;-76
2022/01/24 11:49:54;;;;;;;43.53;20.08;;;5.80;99.90;;;;;;4991606;28;20031;-76
2022/01/24 11:52:30;;;;;;;52.33;22.70;;;5.90;99.90;;;;;;4992117;28;20050;-77
2022/01/24 11:57:45;;;;;;;44.90;21.40;;;5.90;99.90;;;;;;5009516;28;20042;-74
2022/01/24 12:00:33;;;;;;;54.83;26.80;;;5.90;99.90;;;;;;5000930;28;20023;-78
2022/01/24 12:03:03;;;;;;;60.08;26.63;;;5.90;99.90;;;;;;4997906;28;20061;-80
2022/01/24 12:05:53;;;;;;;63.78;28.65;;;5.90;99.90;;;;;;4998443;28;20129;-78
2022/01/24 12:08:31;;;;;;;57.13;26.27;;;5.80;99.90;;;;;;4994144;28;20022;-76
2022/01/24 12:11:12;;;;;;;55.05;25.95;;;5.90;99.90;;;;;;4990693;28;20400;-76
2022/01/24 12:13:47;;;;;;;63.85;29.27;;;5.80;99.90;;;;;;4992985;28;20038;-77
2022/01/24 12:16:15;;;;;;;65.65;30.08;;;5.90;99.90;;;;;;4988993;28;20034;-76
2022/01/24 12:18:42;;;;;;;63.85;30.05;;;5.80;99.90;;;;;;4994325;28;20022;-76
2022/01/24 12:21:14;;;;;;;63.03;30.38;;;5.80;99.90;;;;;;4988790;28;20054;-75
2022/01/24 12:23:45;;;;;;;64.75;28.60;;;5.70;99.90;;;;;;4990924;28;20400;-75
2022/01/24 12:26:13;;;;;;;61.72;28.33;;;5.70;99.90;;;;;;4994271;28;20030;-75
2022/01/24 12:28:42;;;;;;;68.45;30.90;;;5.70;99.90;;;;;;4988771;28;20029;-75
2022/01/24 12:31:11;;;;;;;63.78;30.60;;;5.70;99.90;;;;;;4991990;28;20081;-76
2022/01/24 12:33:54;;;;;;;62.00;28.75;;;5.60;99.90;;;;;;4989268;28;20408;-76
2022/01/24 12:36:59;;;;;;;66.43;30.30;;;5.70;99.90;;;;;;4996055;28;20112;-76
2022/01/24 12:39:47;;;;;;;65.07;28.45;;;5.70;99.90;;;;;;4990131;28;20060;-76
2022/01/24 12:42:21;;;;;;;58.47;27.73;;;5.70;99.90;;;;;;4988644;28;20031;-75
2022/01/24 12:47:26;;;;;;;59.45;30.23;;;5.60;99.90;;;;;;4992322;28;20062;-75
2022/01/24 12:49:54;;;;;;;59.70;28.08;;;5.70;99.90;;;;;;4989279;28;20074;-75
2022/01/24 12:52:26;;;;;;;61.05;29.10;;;5.70;99.90;;;;;;4988967;28;20037;-75
2022/01/24 12:54:55;;;;;;;65.38;29.42;;;5.70;99.90;;;;;;4990901;28;20548;-75
2022/01/24 12:57:29;;;;;;;66.07;29.67;;;5.60;99.90;;;;;;4996006;28;20034;-75
2022/01/24 13:00:03;;;;;;;58.50;26.27;;;5.60;99.90;;;;;;4984782;28;20508;-75
2022/01/24 13:02:31;;;;;;;66.03;29.27;;;5.60;99.90;;;;;;4992190;28;20038;-75
2022/01/24 13:05:03;;;;;;;57.38;26.67;;;5.60;99.90;;;;;;4986901;28;20488;-75
2022/01/24 13:07:31;;;;;;;63.63;27.17;;;5.60;99.90;;;;;;4997606;28;20031;-76
2022/01/24 13:10:29;;;;;;;55.83;26.30;;;5.60;99.90;;;;;;4995056;28;20054;-75
2022/01/24 13:13:10;;;;;;;55.20;26.90;;;5.60;99.90;;;;;;4973707;28;20039;-76
2022/01/24 13:23:47;;;;;;;55.53;26.83;;;5.60;99.90;;;;;;4999728;28;20017;-75
2022/01/24 13:26:13;;;;;;;50.65;24.00;;;5.70;99.90;;;;;;4988256;28;20022;-75
2022/01/24 13:28:40;;;;;;;43.35;22.17;;;5.60;99.90;;;;;;4990110;28;20488;-75
2022/01/24 13:31:07;;;;;;;46.22;22.70;;;5.70;99.90;;;;;;4988642;28;20031;-76
2022/01/24 13:33:35;;;;;;;41.58;20.17;;;5.70;99.90;;;;;;4999987;28;20026;-75
2022/01/24 13:36:05;;;;;;;49.83;23.48;;;5.60;99.90;;;;;;5016471;28;20030;-75
2022/01/24 13:38:36;;;;;;;46.42;22.75;;;5.70;99.90;;;;;;4992509;28;20026;-75
2022/01/24 13:41:23;;;;;;;;;;;5.60;99.90;;;;;;4991154;28;20537;-75
2022/01/24 13:43:57;;;;;;;51.08;23.30;;;5.60;99.90;;;;;;4988875;28;19924;-75
2022/01/24 13:46:27;;;;;;;51.40;25.33;;;5.60;99.90;;;;;;4992969;28;20442;-75
2022/01/24 13:49:11;;;;;;;44.95;22.50;;;5.50;99.90;;;;;;4997719;28;20049;-75
2022/01/24 13:51:48;;;;;;;60.88;27.98;;;5.60;99.90;;;;;;4994599;28;20038;-74
2022/01/24 13:54:26;;;;;;;73.10;35.35;;;5.50;99.90;;;;;;4995038;28;20034;-74
2022/01/24 13:56:57;;;;;;;55.17;26.38;;;5.50;99.90;;;;;;4993489;28;20029;-76
2022/01/24 13:59:25;;;;;;;53.53;25.83;;;5.50;99.90;;;;;;4993038;28;20564;-76
2022/01/24 14:02:15;;;;;;;51.08;24.50;;;5.50;99.90;;;;;;4993688;28;20487;-75
2022/01/24 14:04:49;;;;;;;56.20;25.85;;;5.50;99.90;;;;;;4996151;28;20060;-76
2022/01/24 14:07:14;;;;;;;47.88;24.45;;;5.50;99.90;;;;;;4990971;28;20049;-76
2022/01/24 14:09:46;;;;;;;52.10;25.75;;;5.50;99.90;;;;;;4994773;28;20030;-75
2022/01/24 14:12:17;;;;;;;52.85;25.85;;;5.50;99.90;;;;;;4994629;28;20292;-75
2022/01/24 14:14:51;;;;;;;54.53;25.65;;;5.50;99.90;;;;;;4996711;28;20053;-75
2022/01/24 14:17:30;;;;;;;56.38;27.95;;;5.50;99.90;;;;;;4993118;28;20085;-75
2022/01/24 14:19:59;;;;;;;49.40;24.80;;;5.50;99.90;;;;;;4993044;28;20373;-75
2022/01/24 14:22:38;;;;;;;53.63;25.60;;;5.50;99.90;;;;;;4995353;28;20487;-75
2022/01/24 14:25:05;;;;;;;45.60;23.90;;;5.50;99.90;;;;;;4992089;28;20045;-75
2022/01/24 14:27:51;;;;;;;50.80;23.98;;;5.50;99.90;;;;;;4989976;28;20670;-75
2022/01/24 14:30:27;;;;;;;48.75;24.80;;;5.50;99.90;;;;;;4995599;28;20058;-75
2022/01/24 14:33:13;;;;;;;47.28;23.98;;;5.50;99.90;;;;;;4989282;28;20141;-75
2022/01/24 14:35:49;;;;;;;49.13;24.90;;;5.50;99.90;;;;;;4987012;28;20041;-75
2022/01/24 14:38:42;;;;;;;48.53;24.45;;;5.50;99.90;;;;;;4996361;28;20030;-75
2022/01/24 14:41:18;;;;;;;45.97;23.80;;;5.50;99.90;;;;;;4991920;28;20248;-74
2022/01/24 14:46:36;;;;;;;45.80;22.40;;;5.50;99.90;;;;;;4984865;28;20476;-75
2022/01/24 14:49:14;;;;;;;43.00;21.92;;;5.50;99.90;;;;;;4991930;28;20026;-75
2022/01/24 14:51:43;;;;;;;45.97;22.77;;;5.50;99.90;;;;;;5014384;22;20377;-72
2022/01/24 14:54:12;;;;;;;45.42;23.75;;;5.50;99.90;;;;;;5010739;28;20052;-72
2022/01/24 14:56:40;;;;;;;46.90;23.00;;;5.40;99.90;;;;;;5012251;28;20032;-73
2022/01/24 14:59:06;;;;;;;51.60;23.45;;;5.40;99.90;;;;;;5030133;28;20084;-73
2022/01/24 15:01:33;;;;;;;44.95;22.52;;;5.40;99.90;;;;;;5007956;28;20035;-73
2022/01/24 15:03:59;;;;;;;47.38;22.45;;;5.40;99.90;;;;;;4992586;28;20026;-73
2022/01/24 15:06:26;;;;;;;44.95;22.73;;;5.30;99.90;;;;;;4993138;28;20116;-73